createdAt,value
2018-09-22T00:03:16.719Z,1003
2018-09-22T00:13:18.046Z,1003
2018-09-22T00:23:18.464Z,1003.1
2018-09-22T00:33:18.884Z,1003.3
2018-09-22T00:43:19.029Z,1003.4
2018-09-22T00:53:19.599Z,1003.4
2018-09-22T01:03:20.006Z,1003.4
2018-09-22T01:13:20.438Z,1003.7
2018-09-22T01:23:20.640Z,1004
2018-09-22T01:33:21.292Z,1004.2
2018-09-22T01:43:21.529Z,1004.1
2018-09-22T02:03:25.031Z,1004.5
2018-09-22T02:13:25.421Z,1004.6
2018-09-22T02:23:25.888Z,1004.7
2018-09-22T02:33:25.719Z,1004.7
2018-09-22T02:43:26.112Z,1004.8
2018-09-22T02:53:26.143Z,1004.9
2018-09-22T03:03:27.143Z,1005
2018-09-22T03:13:27.312Z,1005.1
2018-09-22T03:23:27.802Z,1005.3
2018-09-22T03:33:28.050Z,1005.3
2018-09-22T03:43:28.737Z,1005.5
2018-09-22T03:53:29.200Z,1005.7
2018-09-22T04:03:29.481Z,1005.6
2018-09-22T04:13:29.803Z,1005.7
2018-09-22T04:23:29.844Z,1005.7
2018-09-22T04:33:30.473Z,1005.8
2018-09-22T04:43:30.885Z,1005.9
2018-09-22T04:53:31.639Z,1005.9
2018-09-22T05:03:32.121Z,1006.1
2018-09-22T05:13:32.313Z,1006.2
2018-09-22T05:23:32.750Z,1006.3
2018-09-22T05:33:33.654Z,1006.3
2018-09-22T05:43:34.035Z,1006.5
2018-09-22T05:53:35.799Z,1006.5
2018-09-22T06:03:36.615Z,1006.6
2018-09-22T06:13:37.532Z,1006.8
2018-09-22T06:23:37.723Z,1006.8
2018-09-22T06:33:38.164Z,1006.7
2018-09-22T06:43:38.982Z,1006.9
2018-09-22T06:53:39.388Z,1007
2018-09-22T07:03:42.206Z,1006.9
2018-09-22T07:23:45.721Z,1007
2018-09-22T07:33:48.618Z,1007.1
2018-09-22T07:43:49.054Z,1007.1
2018-09-22T07:53:49.343Z,1007.3
2018-09-22T08:03:50.365Z,1007.3
2018-09-22T08:13:51.019Z,1007.3
2018-09-22T08:33:54.270Z,1007.5
2018-09-22T08:43:54.661Z,1007.5
2018-09-22T08:53:55.230Z,1007.4
2018-09-22T09:03:55.863Z,1007.5
2018-09-22T09:13:57.427Z,1007.5
2018-09-22T09:23:58.133Z,1007.5
2018-09-22T09:44:02.228Z,1007.3
2018-09-22T10:04:05.701Z,1007.1
2018-09-22T10:14:07.058Z,1007
2018-09-22T10:24:07.531Z,1006.9
2018-09-22T10:34:08.354Z,1006.8
2018-09-22T10:44:11.212Z,1007
2018-09-22T11:04:16.043Z,1007
2018-09-22T11:14:16.557Z,1006.9
2018-09-22T11:44:19.422Z,1006.7
2018-09-22T11:54:19.753Z,1006.5
2018-09-22T12:04:20.344Z,1006.5
2018-09-22T12:24:22.859Z,1006.5
2018-09-22T12:34:23.154Z,1006.6
2018-09-22T12:44:23.532Z,1006.5
2018-09-22T12:54:23.831Z,1006.2
2018-09-22T13:04:24.142Z,1006.2
2018-09-22T13:14:24.667Z,1006.2
2018-09-22T13:24:25.196Z,1006.2
2018-09-22T13:34:25.252Z,1006.1
2018-09-22T13:44:25.695Z,1005.8
2018-09-22T13:54:26.249Z,1005.9
2018-09-22T14:04:26.558Z,1005.7
2018-09-22T14:14:27.105Z,1005.8
2018-09-22T14:24:27.235Z,1005.7
2018-09-22T14:34:27.405Z,1005.8
2018-09-22T14:44:27.380Z,1005.8
2018-09-22T14:54:27.658Z,1005.9
2018-09-22T15:04:28.152Z,1005.8
2018-09-22T15:14:28.483Z,1005.7
2018-09-22T15:24:28.712Z,1005.7
2018-09-22T15:34:29.283Z,1005.7
2018-09-22T15:44:29.257Z,1005.6
2018-09-22T15:54:29.482Z,1005.6
2018-09-22T16:14:32.375Z,1006.6
2018-09-22T16:24:32.150Z,1006.5
2018-09-22T16:34:32.049Z,1006.3
2018-09-22T16:44:32.220Z,1006.4
2018-09-22T16:54:32.331Z,1006.3
2018-09-22T17:04:32.691Z,1006.4
2018-09-22T17:14:33.008Z,1006.4
2018-09-22T17:24:33.199Z,1006.4
2018-09-22T17:34:33.497Z,1006.4
2018-09-22T17:54:36.888Z,1006.5
2018-09-22T18:04:37.219Z,1006.5
2018-09-22T18:14:38.951Z,1006.7
2018-09-22T18:24:39.940Z,1006.7
2018-09-22T18:34:40.349Z,1006.6
2018-09-22T18:44:40.816Z,1006.6
2018-09-22T18:54:41.293Z,1006.7
2018-09-22T19:04:41.078Z,1006.9
2018-09-22T19:14:41.677Z,1006.9
2018-09-22T19:24:44.724Z,1006.7
2018-09-22T19:34:45.260Z,1006.9
2018-09-22T19:44:45.767Z,1006.9
2018-09-22T19:54:46.085Z,1006.8
2018-09-22T20:14:49.499Z,1006.7
2018-09-22T20:24:49.825Z,1006.5
2018-09-22T20:34:52.578Z,1006.5
2018-09-22T20:54:56.119Z,1006.3
2018-09-22T21:04:56.449Z,1006.4
2018-09-22T21:14:56.906Z,1006.2
2018-09-22T21:24:57.385Z,1006.3
2018-09-22T21:34:58.209Z,1006.2
2018-09-22T21:55:04.657Z,1006.1
2018-09-22T22:05:05.447Z,1006
2018-09-22T22:15:06.113Z,1005.9
2018-09-22T22:25:09.398Z,1005.8
2018-09-22T22:35:09.837Z,1005.8
2018-09-22T22:45:10.118Z,1005.9
2018-09-22T22:55:10.477Z,1005.7
2018-09-22T23:15:14.260Z,1005.6
2018-09-22T23:25:14.683Z,1005.6
2018-09-22T23:35:15.166Z,1005.6
2018-09-22T23:45:16.161Z,1005.4
2018-09-22T23:55:16.443Z,1005.3
